Time;durP1;ratioP1;P1;durP2;ratioP2;P2;SDS_P1;SDS_P2;PMS_P1;PMS_P2;Temp;Humidity;BMP_temperature;BMP_pressure;BME280_temperature;BME280_humidity;BME280_pressure;Samples;Min_cycle;Max_cycle;Signal;HPM_P1;HPM_P2
2022/08/24 00:01:11;;;;;;;3.13;2.63;;;;;;;20.62;100.00;101745.44;5036488;28;20938;-74
2022/08/24 00:03:38;;;;;;;2.93;2.63;;;;;;;20.53;100.00;101743.09;5030878;28;20442;-74
2022/08/24 00:06:06;;;;;;;3.60;2.80;;;;;;;20.56;100.00;101739.06;5024312;28;20536;-74
2022/08/24 00:08:32;;;;;;;4.40;2.47;;;;;;;20.63;100.00;101747.09;5031428;28;20521;-74
2022/08/24 00:10:58;;;;;;;4.20;2.33;;;;;;;20.03;100.00;101655.72;5032861;28;20466;-74
2022/08/24 00:13:25;;;;;;;3.13;2.73;;;;;;;20.35;100.00;101704.28;5035468;28;20837;-74
2022/08/24 00:15:51;;;;;;;2.73;2.50;;;;;;;20.56;100.00;101740.97;5040327;28;20438;-74
2022/08/24 00:18:17;;;;;;;2.33;2.13;;;;;;;20.40;100.00;101739.81;5017922;28;20443;-74
2022/08/24 00:20:44;;;;;;;3.13;2.40;;;;;;;20.17;100.00;101697.13;5053864;28;20450;-74
2022/08/24 00:23:10;;;;;;;2.30;2.10;;;;;;;20.12;100.00;101707.94;5019823;28;20973;-74
2022/08/24 00:25:36;;;;;;;3.47;2.27;;;;;;;20.27;100.00;101749.91;5034960;28;20447;-74
2022/08/24 00:28:02;;;;;;;5.70;2.10;;;;;;;20.21;100.00;101742.69;5038648;28;21102;-74
2022/08/24 00:30:28;;;;;;;3.40;2.00;;;;;;;20.19;100.00;101754.91;5034885;28;20220;-74
2022/08/24 00:32:54;;;;;;;3.40;2.03;;;;;;;20.18;100.00;101745.09;5036500;28;20438;-74
2022/08/24 00:35:20;;;;;;;3.60;2.27;;;;;;;20.09;100.00;101742.72;5035663;28;20455;-74
2022/08/24 00:37:47;;;;;;;2.70;2.30;;;;;;;20.07;100.00;101736.69;5037493;28;20215;-74
2022/08/24 00:40:19;;;;;;;3.23;2.20;;;;;;;20.16;100.00;101769.00;5033892;28;20958;-74
2022/08/24 00:42:45;;;;;;;2.10;1.90;;;;;;;20.13;100.00;101748.53;5048901;28;20439;-74
2022/08/24 00:45:12;;;;;;;3.60;1.90;;;;;;;19.86;100.00;101715.56;5034070;28;21038;-75
2022/08/24 00:47:49;;;;;;;2.17;1.90;;;;;;;20.11;100.00;101749.84;5030509;28;20244;-74
2022/08/24 00:50:23;;;;;;;2.83;1.83;;;;;;;20.08;100.00;101743.00;5030811;28;20471;-74
2022/08/24 00:52:55;;;;;;;3.03;1.80;;;;;;;20.02;100.00;101743.97;5035747;28;20460;-74
2022/08/24 00:55:37;;;;;;;2.10;1.90;;;;;;;19.77;100.00;101692.50;5032508;28;20443;-75
2022/08/24 00:58:11;;;;;;;2.07;1.83;;;;;;;19.86;100.00;101743.59;5029972;28;20439;-74
2022/08/24 01:00:44;;;;;;;3.20;1.73;;;;;;;19.39;100.00;101672.03;5035477;28;20460;-74
2022/08/24 01:03:10;;;;;;;2.90;1.90;;;;;;;19.31;100.00;101650.63;5033577;28;20438;-74
2022/08/24 01:05:37;;;;;;;1.87;1.50;;;;;;;19.78;100.00;101737.69;5032767;28;20439;-75
2022/08/24 01:08:05;;;;;;;2.30;1.70;;;;;;;19.36;100.00;101675.25;5027706;28;20475;-75
2022/08/24 01:10:37;;;;;;;3.20;2.00;;;;;;;19.85;100.00;101738.41;5015281;28;20463;-75
2022/08/24 01:13:05;;;;;;;2.30;1.77;;;;;;;19.50;100.00;101649.44;5032136;28;21068;-75
2022/08/24 01:15:37;;;;;;;2.80;1.90;;;;;;;19.98;100.00;101740.84;5034355;28;20442;-75
2022/08/24 01:21:30;;;;;;;2.73;2.10;;;;;;;19.81;100.00;101739.94;4970646;28;20455;-75
2022/08/24 01:23:58;;;;;;;2.33;1.70;;;;;;;19.77;100.00;101750.47;5052520;22;20489;-71
2022/08/24 01:26:35;;;;;;;2.07;1.60;;;;;;;19.38;100.00;101713.88;5048031;28;20449;-71
2022/08/24 01:29:07;;;;;;;2.40;1.90;;;;;;;19.37;100.00;101712.25;5053285;28;20799;-72
2022/08/24 01:31:33;;;;;;;5.33;2.13;;;;;;;19.46;100.00;101750.81;5055202;28;20857;-71
2022/08/24 01:33:59;;;;;;;2.80;1.97;;;;;;;19.39;100.00;101753.66;5043950;28;20465;-71
2022/08/24 01:36:35;;;;;;;2.47;1.73;;;;;;;19.59;100.00;101762.28;5034011;28;20461;-71
2022/08/24 01:39:14;;;;;;;1.60;1.50;;;;;;;19.38;100.00;101757.41;5031485;28;20202;-71
2022/08/24 01:41:40;;;;;;;3.20;2.03;;;;;;;19.41;100.00;101765.09;5029530;28;20505;-70
2022/08/24 01:44:06;;;;;;;2.93;1.83;;;;;;;19.36;100.00;101759.56;5002385;28;20901;-71
2022/08/24 01:46:32;;;;;;;3.13;2.00;;;;;;;19.15;100.00;101750.06;5019561;28;20188;-71
2022/08/24 01:48:58;;;;;;;2.40;1.60;;;;;;;19.17;100.00;101747.94;5034632;28;20438;-70
2022/08/24 01:51:25;;;;;;;3.17;2.07;;;;;;;19.34;100.00;101761.69;5031538;28;20648;-71
2022/08/24 01:53:50;;;;;;;5.67;2.10;;;;;;;19.05;100.00;101742.47;5032273;28;20491;-70
2022/08/24 01:56:16;;;;;;;2.10;1.83;;;;;;;19.29;100.00;101769.72;5031548;28;20478;-71
2022/08/24 01:58:46;;;;;;;5.50;2.07;;;;;;;19.09;100.00;101762.72;5034033;28;20188;-71
2022/08/24 02:01:13;;;;;;;2.00;1.53;;;;;;;18.82;100.00;101735.09;5033387;28;20278;-70
2022/08/24 02:03:39;;;;;;;2.43;1.67;;;;;;;18.96;100.00;101760.19;5033837;28;20470;-70
2022/08/24 02:06:05;;;;;;;2.30;2.10;;;;;;;18.70;100.00;101724.16;5033751;28;20434;-70
2022/08/24 02:08:35;;;;;;;2.73;2.07;;;;;;;19.17;100.00;101770.50;5033024;28;20194;-70
2022/08/24 02:11:08;;;;;;;2.37;2.17;;;;;;;18.80;100.00;101729.06;5031740;28;20187;-71
2022/08/24 02:13:36;;;;;;;2.10;1.60;;;;;;;18.26;100.00;101647.47;5033776;28;20457;-71
2022/08/24 02:16:01;;;;;;;2.83;1.97;;;;;;;18.51;100.00;101692.66;5030650;28;20469;-71
2022/08/24 02:18:27;;;;;;;3.30;1.90;;;;;;;19.17;100.00;101778.69;5013997;28;20443;-71
2022/08/24 02:20:52;;;;;;;2.70;1.70;;;;;;;18.80;100.00;101764.38;5029148;28;20848;-70
2022/08/24 02:23:19;;;;;;;2.20;2.00;;;;;;;18.64;100.00;101743.28;5031259;28;20212;-71
2022/08/24 02:25:45;;;;;;;4.37;2.17;;;;;;;18.89;100.00;101783.91;5034451;28;20206;-71
2022/08/24 02:28:11;;;;;;;5.27;2.27;;;;;;;18.83;100.00;101779.41;5033541;28;20836;-70
2022/08/24 02:30:37;;;;;;;2.80;2.27;;;;;;;19.02;100.00;101764.69;5035247;28;20438;-70
2022/08/24 02:33:02;;;;;;;1.97;1.87;;;;;;;18.97;100.00;101770.81;5028449;28;20608;-70
2022/08/24 02:35:28;;;;;;;2.60;1.87;;;;;;;18.77;100.00;101747.72;5029632;28;20727;-70
2022/08/24 02:37:54;;;;;;;2.90;2.10;;;;;;;18.84;100.00;101779.19;5030280;28;20256;-70
2022/08/24 02:40:20;;;;;;;4.77;2.20;;;;;;;18.61;100.00;101713.84;5036340;28;20441;-69
2022/08/24 02:42:46;;;;;;;6.47;2.20;;;;;;;18.93;100.00;101783.22;5016956;28;20220;-69
2022/08/24 02:45:12;;;;;;;2.20;2.00;;;;;;;18.89;100.00;101773.91;5035847;28;20438;-69
2022/08/24 02:47:38;;;;;;;3.97;2.50;;;;;;;18.69;100.00;101751.56;5034609;28;20457;-70
2022/08/24 02:50:05;;;;;;;3.87;2.30;;;;;;;18.90;100.00;101780.16;5039341;28;20168;-69
2022/08/24 02:52:30;;;;;;;3.13;1.60;;;;;;;18.71;100.00;101773.91;5034882;28;20425;-70
2022/08/24 02:54:55;;;;;;;5.53;2.33;;;;;;;18.77;100.00;101781.16;5036230;28;20467;-69
2022/08/24 02:57:21;;;;;;;2.33;2.07;;;;;;;18.78;100.00;101757.53;5034993;28;20201;-69
2022/08/24 02:59:46;;;;;;;3.87;2.53;;;;;;;18.84;100.00;101781.91;5034381;28;20192;-69
2022/08/24 03:02:12;;;;;;;2.40;2.20;;;;;;;18.63;100.00;101782.34;5033135;28;20597;-69
2022/08/24 03:04:37;;;;;;;3.37;2.10;;;;;;;18.55;100.00;101779.97;5037526;28;20204;-69
2022/08/24 03:07:03;;;;;;;4.60;2.20;;;;;;;18.50;100.00;101769.78;5034872;28;20266;-69
2022/08/24 03:09:28;;;;;;;5.00;2.20;;;;;;;18.30;100.00;101745.59;5037942;28;20682;-69
2022/08/24 03:11:55;;;;;;;4.17;2.60;;;;;;;18.61;100.00;101789.94;5034476;28;20191;-70
2022/08/24 03:14:20;;;;;;;7.10;2.40;;;;;;;18.50;100.00;101781.47;5036493;28;20260;-69
2022/08/24 03:16:45;;;;;;;3.40;2.40;;;;;;;18.44;100.00;101795.97;5033953;28;20449;-70
2022/08/24 03:19:11;;;;;;;3.60;2.57;;;;;;;18.29;100.00;101782.78;5037281;28;20546;-69
2022/08/24 03:21:37;;;;;;;3.30;2.30;;;;;;;18.42;100.00;101803.53;5032657;28;20188;-70
2022/08/24 03:24:03;;;;;;;2.40;2.20;;;;;;;18.47;100.00;101800.97;5034098;28;20208;-70
2022/08/24 03:26:28;;;;;;;3.07;2.27;;;;;;;18.42;100.00;101784.50;5035362;28;21029;-69
2022/08/24 03:28:54;;;;;;;3.07;2.47;;;;;;;18.46;100.00;101785.72;5036373;28;20211;-70
2022/08/24 03:31:20;;;;;;;2.67;2.43;;;;;;;18.46;100.00;101796.59;5033775;28;20188;-69
2022/08/24 03:33:45;;;;;;;4.73;2.50;;;;;;;18.40;100.00;101813.81;5034367;28;20200;-70
2022/08/24 03:36:11;;;;;;;2.77;2.10;;;;;;;18.40;100.00;101791.22;5031542;28;20207;-70
2022/08/24 03:38:36;;;;;;;5.83;2.60;;;;;;;18.36;100.00;101795.47;5015046;28;20668;-71
2022/08/24 03:41:01;;;;;;;4.77;2.67;;;;;;;18.50;100.00;101795.06;5034558;28;20179;-71
2022/08/24 03:43:45;;;;;;;3.40;1.87;;;;;;;18.29;100.00;101792.84;5037457;28;20231;-70
2022/08/24 03:46:13;;;;;;;3.40;2.37;;;;;;;18.19;100.00;101782.47;5033679;28;20180;-70
2022/08/24 03:48:39;;;;;;;3.27;2.70;;;;;;;18.01;100.00;101767.03;5036422;28;20530;-71
2022/08/24 03:51:16;;;;;;;2.87;2.20;;;;;;;18.27;100.00;101813.94;5014964;28;20538;-70
2022/08/24 03:53:42;;;;;;;3.73;2.87;;;;;;;18.20;100.00;101803.16;5031369;28;20461;-71
2022/08/24 03:56:08;;;;;;;3.27;2.90;;;;;;;18.41;100.00;101812.75;5035957;28;20463;-71
2022/08/24 03:58:40;;;;;;;3.83;2.50;;;;;;;18.34;100.00;101819.28;5034400;28;20447;-70
2022/08/24 04:01:06;;;;;;;3.83;2.30;;;;;;;18.04;100.00;101765.75;5034071;28;20172;-70
2022/08/24 04:03:40;;;;;;;2.87;2.57;;;;;;;18.22;100.00;101824.66;5030784;28;20966;-70
2022/08/24 04:06:07;;;;;;;3.97;2.30;;;;;;;17.91;100.00;101752.34;5031536;28;20955;-70
2022/08/24 04:08:34;;;;;;;3.93;2.03;;;;;;;18.35;100.00;101807.38;5014965;28;20871;-70
2022/08/24 04:11:01;;;;;;;2.70;2.47;;;;;;;18.51;100.00;101834.78;5030045;28;20454;-71
2022/08/24 04:13:30;;;;;;;3.23;2.57;;;;;;;18.24;100.00;101831.53;5033524;28;20508;-71
2022/08/24 04:15:56;;;;;;;3.87;2.60;;;;;;;18.29;100.00;101831.69;5006969;28;20946;-71
2022/08/24 04:18:22;;;;;;;2.67;2.20;;;;;;;17.98;100.00;101762.06;5029063;28;20447;-71
2022/08/24 04:20:47;;;;;;;2.80;2.13;;;;;;;17.73;100.00;101736.81;5037780;28;20486;-72
2022/08/24 04:23:14;;;;;;;5.17;2.10;;;;;;;18.34;100.00;101838.31;5038778;28;20291;-72
2022/08/24 04:25:45;;;;;;;3.87;2.67;;;;;;;18.27;100.00;101824.81;5012273;28;20208;-72
2022/08/24 04:28:14;;;;;;;6.33;2.77;;;;;;;17.83;100.00;101770.56;5013912;28;21002;-71
2022/08/24 04:30:42;;;;;;;6.23;3.27;;;;;;;18.27;100.00;101851.97;5005949;28;21137;-71
2022/08/24 04:33:09;;;;;;;3.23;2.83;;;;;;;17.67;100.00;101733.13;5028636;28;20465;-69
2022/08/24 04:35:44;;;;;;;4.53;3.37;;;;;;;17.79;100.00;101742.22;5029238;28;20446;-69
2022/08/24 04:38:10;;;;;;;4.40;3.90;;;;;;;18.41;100.00;101826.31;5031307;28;20470;-70
2022/08/24 04:40:39;;;;;;;4.30;3.23;;;;;;;18.27;100.00;101830.25;5035346;28;20421;-70
2022/08/24 04:43:04;;;;;;;4.00;3.40;;;;;;;18.26;100.00;101829.41;5018687;28;20446;-70
2022/08/24 04:45:31;;;;;;;5.53;3.67;;;;;;;18.29;100.00;101836.28;5018927;28;20941;-70
2022/08/24 04:47:56;;;;;;;5.80;3.60;;;;;;;18.25;100.00;101830.47;5020254;28;20187;-70
2022/08/24 04:50:21;;;;;;;4.73;3.50;;;;;;;18.40;100.00;101840.13;5020845;28;20435;-70
2022/08/24 04:52:47;;;;;;;5.30;3.27;;;;;;;18.34;100.00;101843.72;5035784;28;20206;-70
2022/08/24 04:55:12;;;;;;;5.43;3.83;;;;;;;18.04;100.00;101784.75;5038280;28;20214;-70
2022/08/24 04:57:38;;;;;;;4.60;4.17;;;;;;;18.58;100.00;101833.88;5038754;28;20246;-71
2022/08/24 05:00:05;;;;;;;4.87;4.27;;;;;;;18.45;100.00;101859.28;5035846;28;20230;-71
2022/08/24 05:02:31;;;;;;;5.33;4.43;;;;;;;17.76;100.00;101777.91;5035561;28;20545;-71
2022/08/24 05:04:57;;;;;;;5.80;3.80;;;;;;;17.81;100.00;101769.94;5037720;28;20482;-71
2022/08/24 05:07:24;;;;;;;3.97;3.57;;;;;;;18.29;100.00;101860.72;5038575;28;20187;-71
2022/08/24 05:09:49;;;;;;;5.93;3.73;;;;;;;18.47;100.00;101859.91;5021763;28;20430;-70
2022/08/24 05:12:15;;;;;;;5.67;3.67;;;;;;;18.47;100.00;101846.31;5038776;28;20422;-71
2022/08/24 05:14:40;;;;;;;3.83;3.43;;;;;;;17.82;100.00;101765.38;5036896;28;21198;-70
2022/08/24 05:17:06;;;;;;;3.70;3.20;;;;;;;18.66;100.00;101858.84;5037711;28;20199;-70
2022/08/24 05:19:31;;;;;;;3.10;2.80;;;;;;;18.42;100.00;101838.84;5007599;28;20183;-70
2022/08/24 05:21:57;;;;;;;4.60;3.80;;;;;;;18.08;100.00;101796.84;5021232;28;20652;-70
2022/08/24 05:24:22;;;;;;;3.20;2.90;;;;;;;18.59;100.00;101868.94;5037199;28;20211;-70
2022/08/24 05:26:47;;;;;;;4.37;3.90;;;;;;;18.50;100.00;101864.88;5034638;28;20665;-70
2022/08/24 05:29:13;;;;;;;4.70;3.30;;;;;;;18.51;100.00;101866.53;5035880;28;20873;-70
2022/08/24 05:31:43;;;;;;;5.40;3.20;;;;;;;17.72;100.00;101732.44;5020133;28;20184;-70
2022/08/24 05:34:09;;;;;;;4.23;2.80;;;;;;;18.59;100.00;101877.09;5021630;28;20457;-70
2022/08/24 05:36:37;;;;;;;4.13;3.30;;;;;;;18.65;100.00;101864.50;5017695;28;20463;-70
2022/08/24 05:39:07;;;;;;;3.80;3.40;;;;;;;18.04;100.00;101777.44;5033029;28;20180;-70
2022/08/24 05:41:33;;;;;;;3.93;3.23;;;;;;;18.59;100.00;101870.84;5019669;28;20430;-70
2022/08/24 05:43:59;;;;;;;4.10;3.70;;;;;;;18.18;100.00;101788.97;5020950;28;20442;-70
2022/08/24 05:46:24;;;;;;;7.50;4.43;;;;;;;17.81;100.00;101709.41;5037899;28;20431;-70
2022/08/24 05:48:51;;;;;;;3.60;3.17;;;;;;;18.65;100.00;101848.19;5036497;28;20488;-70
2022/08/24 05:51:16;;;;;;;4.53;3.07;;;;;;;18.39;100.00;101792.28;5022882;28;20191;-70
2022/08/24 05:53:42;;;;;;;3.53;2.87;;;;;;;18.44;100.00;101787.00;5034953;28;20823;-70
2022/08/24 05:56:10;;;;;;;3.50;3.20;;;;;;;18.36;100.00;101790.03;5035738;28;20180;-70
2022/08/24 05:58:36;;;;;;;5.10;2.93;;;;;;;19.04;100.00;101865.91;5038851;28;20195;-70
2022/08/24 06:01:07;;;;;;;4.20;2.87;;;;;;;19.00;100.00;101867.41;5004012;28;20413;-70
2022/08/24 06:03:33;;;;;;;3.97;3.47;;;;;;;18.98;100.00;101864.13;5035283;28;20457;-70
2022/08/24 06:06:01;;;;;;;8.07;3.70;;;;;;;18.84;100.00;101813.69;5018917;28;20922;-70
2022/08/24 06:08:27;;;;;;;3.70;3.07;;;;;;;19.16;100.00;101883.09;5037929;28;20192;-70
2022/08/24 06:10:52;;;;;;;4.27;3.17;;;;;;;19.18;100.00;101861.94;5034915;28;20425;-70
2022/08/24 06:13:18;;;;;;;3.37;3.07;;;;;;;19.33;100.00;101868.84;5022070;28;20200;-70
2022/08/24 06:15:43;;;;;;;5.07;3.70;;;;;;;18.94;100.00;101816.69;5039190;28;20184;-70
2022/08/24 06:18:09;;;;;;;7.80;4.30;;;;;;;19.45;100.00;101869.69;5021897;28;20549;-70
2022/08/24 06:20:41;;;;;;;6.80;4.37;;;;;;;18.75;100.00;101788.72;5038509;28;20219;-71
2022/08/24 06:23:07;;;;;;;5.70;5.20;;;;;;;19.10;100.00;101802.44;5038965;28;20251;-70
2022/08/24 06:28:18;;;;;;;7.43;5.67;;;;;;;19.48;100.00;101880.13;5040747;28;20482;-70
2022/08/24 06:30:43;;;;;;;13.00;6.70;;;;;;;19.42;100.00;101879.16;5019956;28;20941;-70
2022/08/24 06:33:09;;;;;;;7.40;6.03;;;;;;;19.02;100.00;101801.94;5037934;28;20223;-70
2022/08/24 06:35:34;;;;;;;6.00;5.40;;;;;;;19.82;100.00;101883.19;5037680;28;20195;-70
2022/08/24 06:38:00;;;;;;;7.37;6.20;;;;;;;19.95;100.00;101890.28;5009576;28;20466;-70
2022/08/24 06:40:26;;;;;;;7.77;6.80;;;;;;;19.94;100.00;101892.19;5037698;28;20208;-70
2022/08/24 06:42:52;;;;;;;6.83;6.10;;;;;;;19.53;100.00;101811.41;5021423;28;20200;-70
2022/08/24 06:45:18;;;;;;;5.87;5.37;;;;;;;20.07;100.00;101897.38;5035726;28;20558;-70
2022/08/24 06:47:43;;;;;;;6.70;6.00;;;;;;;20.14;100.00;101907.34;5039110;28;20507;-70
2022/08/24 06:50:09;;;;;;;8.27;6.30;;;;;;;20.15;100.00;101907.09;5023592;28;20184;-70
2022/08/24 06:52:38;;;;;;;12.20;8.47;;;;;;;20.29;100.00;101911.25;5039632;28;20187;-71
2022/08/24 06:55:04;;;;;;;12.53;9.27;;;;;;;20.31;100.00;101900.94;5008443;28;20418;-70
2022/08/24 06:57:30;;;;;;;9.70;8.83;;;;;;;19.80;100.00;101845.28;5026858;28;20450;-70
2022/08/24 06:59:55;;;;;;;12.30;9.07;;;;;;;19.92;100.00;101860.78;5039911;28;20434;-70
2022/08/24 07:02:21;;;;;;;8.97;8.07;;;;;;;20.52;100.00;101912.28;5035586;28;20644;-70
2022/08/24 07:04:46;;;;;;;9.50;8.30;;;;;;;20.17;100.00;101850.50;5035610;28;20211;-70
2022/08/24 07:07:12;;;;;;;11.17;8.60;;;;;;;20.60;100.00;101905.66;5023163;28;20215;-70
2022/08/24 07:09:38;;;;;;;11.13;9.87;;;;;;;20.63;100.00;101916.94;5020171;28;20237;-70
2022/08/24 07:12:04;;;;;;;8.40;7.60;;;;;;;20.40;100.00;101841.47;5039045;28;20235;-70
2022/08/24 07:14:30;;;;;;;9.87;8.97;;;;;;;20.83;100.00;101916.53;5037603;28;20687;-70
2022/08/24 07:16:55;;;;;;;8.50;7.60;;;;;;;20.37;100.00;101841.13;5019248;28;20291;-70
2022/08/24 07:19:21;;;;;;;10.40;8.70;;;;;;;20.30;100.00;101822.97;5039063;28;20545;-70
2022/08/24 07:21:47;;;;;;;7.33;6.63;;;;;;;21.04;100.00;101908.75;5038177;28;20211;-70
2022/08/24 07:24:12;;;;;;;8.97;6.60;;;;;;;21.09;100.00;101906.09;5038044;28;20464;-70
2022/08/24 07:26:38;;;;;;;7.70;6.80;;;;;;;19.71;100.00;101699.72;5026377;22;20228;-72
2022/08/24 07:29:14;;;;;;;6.60;5.90;;;;;;;20.27;100.00;101773.59;4987340;28;20190;-73
2022/08/24 07:31:41;;;;;;;5.87;5.33;;;;;;;20.68;100.00;101802.53;5002892;28;20888;-72
2022/08/24 07:34:08;;;;;;;6.13;5.53;;;;;;;20.63;100.00;101791.53;5002436;28;20520;-73
2022/08/24 07:36:35;;;;;;;5.70;5.10;;;;;;;20.35;100.00;101748.72;5003899;28;20910;-72
2022/08/24 07:39:02;;;;;;;5.50;5.00;;;;;;;19.88;100.00;101667.16;5002617;28;20904;-72
2022/08/24 07:41:28;;;;;;;5.70;5.10;;;;;;;20.78;100.00;101793.72;5002835;28;20428;-72
2022/08/24 07:43:55;;;;;;;7.90;6.93;;;;;;;21.36;100.00;101879.06;5003198;28;20423;-73
2022/08/24 07:46:21;;;;;;;8.37;6.80;;;;;;;21.51;100.00;101912.13;5003243;28;20469;-73
2022/08/24 07:48:47;;;;;;;6.80;5.37;;;;;;;19.69;100.00;101613.94;4987663;28;20439;-74
2022/08/24 07:51:15;;;;;;;9.47;7.63;;;;;;;21.71;100.00;101911.66;4985785;28;21547;-74
2022/08/24 07:53:40;;;;;;;9.40;8.00;;;;;;;19.90;100.00;101602.38;5002672;28;20190;-74
2022/08/24 07:56:06;;;;;;;6.50;5.80;;;;;;;20.32;100.00;101664.75;5003263;28;20428;-74
2022/08/24 07:58:31;;;;;;;6.73;5.07;;;;;;;20.74;100.00;101768.00;5003119;28;20665;-74
2022/08/24 08:00:57;;;;;;;7.30;6.57;;;;;;;20.56;100.00;101733.59;5001878;28;20224;-74
2022/08/24 08:03:26;;;;;;;7.93;5.90;;;;;;;21.98;100.00;101928.19;4989131;28;20181;-74
2022/08/24 08:06:04;;;;;;;10.50;6.73;;;;;;;22.07;100.00;101914.94;4985308;28;20246;-74
2022/08/24 08:08:31;;;;;;;6.40;5.70;;;;;;;22.01;100.00;101924.97;5000839;28;20887;-74
2022/08/24 08:10:57;;;;;;;6.63;5.90;;;;;;;22.05;100.00;101928.03;5000932;28;20991;-75
2022/08/24 08:13:23;;;;;;;16.10;9.20;;;;;;;22.00;100.00;101882.34;4985352;28;20428;-74
2022/08/24 08:15:49;;;;;;;7.83;7.13;;;;;;;22.09;100.00;101899.97;5001857;28;20185;-75
2022/08/24 08:18:15;;;;;;;7.73;6.37;;;;;;;22.07;100.00;101895.81;5002202;28;20209;-75
2022/08/24 08:20:41;;;;;;;5.37;4.87;;;;;;;22.26;100.00;101924.56;4983816;28;20433;-75
2022/08/24 08:25:56;;;;;;;6.90;6.30;;;;;;;22.40;100.00;101935.16;5003601;28;20471;-75
2022/08/24 08:28:23;;;;;;;7.73;6.63;;;;;;;22.49;100.00;101942.66;5002137;28;20452;-75
2022/08/24 08:30:48;;;;;;;8.10;6.40;;;;;;;22.51;100.00;101917.81;5001849;28;20422;-75
2022/08/24 08:33:14;;;;;;;8.47;7.23;;;;;;;22.55;100.00;101938.91;5000893;28;20467;-75
2022/08/24 08:35:40;;;;;;;7.17;6.40;;;;;;;22.67;100.00;101943.44;5000110;28;20190;-75
2022/08/24 08:38:06;;;;;;;5.57;4.20;;;;;;;22.74;100.00;101936.72;5000398;28;20219;-75
2022/08/24 08:40:54;;;;;;;4.23;3.83;;;;;;;22.31;100.00;101871.91;5001266;28;20463;-75
2022/08/24 08:43:47;;;;;;;5.30;4.20;;;;;;;22.77;100.00;101940.88;5005126;28;20450;-76
2022/08/24 08:46:22;;;;;;;9.70;4.93;;;;;;;23.01;100.00;101938.72;5002007;28;20409;-75
2022/08/24 08:49:05;;;;;;;5.30;4.33;;;;;;;23.05;100.00;101937.09;5000844;28;20826;-75
2022/08/24 08:51:50;;;;;;;3.30;3.00;;;;;;;22.74;100.00;101886.66;5000836;28;20436;-74
2022/08/24 08:54:29;;;;;;;4.23;3.83;;;;;;;23.04;100.00;101942.84;5002107;28;20424;-75
2022/08/24 08:57:21;;;;;;;4.37;3.27;;;;;;;23.15;100.00;101944.63;4985571;28;20487;-75
2022/08/24 09:00:07;;;;;;;3.87;3.20;;;;;;;23.20;100.00;101948.25;4987810;28;20797;-75
2022/08/24 09:02:45;;;;;;;5.07;4.10;;;;;;;23.12;100.00;101945.97;5003275;28;20522;-75
2022/08/24 09:05:36;;;;;;;3.50;3.20;;;;;;;23.33;100.00;101944.28;5000283;28;20508;-75
2022/08/24 09:08:24;;;;;;;7.53;3.50;;;;;;;23.41;100.00;101951.22;4980388;28;20462;-75
2022/08/24 09:11:00;;;;;;;3.97;2.67;;;;;;;23.33;100.00;101940.72;5000770;28;20773;-75
2022/08/24 09:13:52;;;;;;;3.33;2.43;;;;;;;23.35;100.00;101930.34;5000540;28;20424;-75
2022/08/24 09:17:09;;;;;;;2.83;2.63;;;;;;;23.69;100.00;101953.69;4999521;28;20468;-74
2022/08/24 09:20:17;;;;;;;2.83;2.27;;;;;;;23.68;100.00;101943.78;4976813;28;21059;-75
2022/08/24 09:22:46;;;;;;;3.10;2.80;;;;;;;23.73;100.00;101917.59;4985327;28;20561;-75
2022/08/24 09:25:27;;;;;;;3.87;2.47;;;;;;;23.89;100.00;101944.00;5000659;28;20437;-75
2022/08/24 09:28:27;;;;;;;4.50;3.40;;;;;;;23.71;100.00;101942.47;5001445;28;20542;-76
2022/08/24 09:31:13;;;;;;;4.10;3.20;;;;;;;23.92;100.00;101940.72;5000786;28;20444;-76
2022/08/24 09:34:14;;;;;;;3.37;2.63;;;;;;;23.84;100.00;101924.81;4999092;28;20865;-75
2022/08/24 09:37:02;;;;;;;3.63;3.33;;;;;;;23.91;100.00;101936.34;5001787;28;20582;-75
2022/08/24 09:39:43;;;;;;;3.90;3.47;;;;;;;24.08;100.00;101941.69;4998827;28;20925;-75
2022/08/24 09:42:40;;;;;;;3.67;2.90;;;;;;;24.09;100.00;101935.09;5000812;28;20440;-75
2022/08/24 09:45:28;;;;;;;3.00;2.67;;;;;;;24.14;100.00;101930.50;4987722;28;20428;-76
2022/08/24 09:48:18;;;;;;;4.13;3.60;;;;;;;24.13;100.00;101928.84;4998171;28;20546;-76
2022/08/24 09:50:49;;;;;;;6.73;3.00;;;;;;;24.20;100.00;101933.28;5000968;28;20842;-75
2022/08/24 09:53:43;;;;;;;4.73;2.97;;;;;;;24.25;100.00;101934.13;4999852;28;20998;-76
2022/08/24 09:56:18;;;;;;;3.10;2.80;;;;;;;23.80;100.00;101858.72;4997777;28;20421;-76
2022/08/24 09:58:57;;;;;;;4.77;3.20;;;;;;;24.29;100.00;101939.91;4981789;28;20574;-77
2022/08/24 10:01:45;;;;;;;4.00;2.63;;;;;;;24.52;100.00;101931.31;4997272;28;20479;-77
2022/08/24 10:04:24;;;;;;;4.60;2.53;;;;;;;24.59;100.00;101936.56;4995178;28;20502;-77
2022/08/24 10:07:11;;;;;;;2.60;2.40;;;;;;;24.39;100.00;101933.66;4992288;28;22110;-77
2022/08/24 10:10:14;;;;;;;3.83;3.10;;;;;;;24.49;100.00;101936.50;4991884;28;20502;-76
2022/08/24 10:13:26;;;;;;;3.33;3.03;;;;;;;24.76;100.00;101926.22;4997523;28;20443;-76
2022/08/24 10:16:29;;;;;;;4.87;2.57;;;;;;;24.78;100.00;101934.19;4948339;28;20888;-77
2022/08/24 10:19:13;;;;;;;7.13;3.17;;;;;;;24.93;100.00;101934.22;4998288;28;20443;-76
2022/08/24 10:22:22;;;;;;;9.77;7.10;;;;;;;25.58;100.00;101917.41;5002197;28;20837;-77
2022/08/24 10:25:10;;;;;;;5.80;4.90;;;;;;;25.01;100.00;101883.50;5001835;28;20480;-76
2022/08/24 10:27:55;;;;;;;4.03;3.63;;;;;;;25.17;100.00;101912.66;5004231;28;20461;-77
2022/08/24 10:30:39;;;;;;;4.50;3.87;;;;;;;24.95;100.00;101915.59;5001502;28;20895;-77
2022/08/24 10:33:20;;;;;;;5.43;3.13;;;;;;;25.22;100.00;101911.84;5001074;28;20413;-76
2022/08/24 10:36:09;;;;;;;6.33;3.37;;;;;;;24.82;100.00;101869.44;4984364;28;20459;-77
2022/08/24 10:45:24;;;;;;;3.17;2.80;;;;;;;25.24;100.00;101910.47;4999894;28;20440;-77
2022/08/24 10:47:58;;;;;;;4.03;3.03;;;;;;;25.45;100.00;101905.00;5000172;28;20465;-77
2022/08/24 10:50:33;;;;;;;2.70;2.50;;;;;;;25.36;100.00;101870.94;5001970;28;20427;-77
2022/08/24 10:53:21;;;;;;;4.57;2.77;;;;;;;25.54;100.00;101906.09;5001469;28;20415;-77
2022/08/24 10:56:03;;;;;;;3.10;2.40;;;;;;;25.71;100.00;101895.66;5001270;28;20630;-76
2022/08/24 10:58:51;;;;;;;2.73;2.23;;;;;;;25.81;100.00;101894.03;5004104;28;20968;-76
2022/08/24 11:01:28;;;;;;;3.67;2.50;;;;;;;25.65;100.00;101899.53;5004099;28;20479;-77
2022/08/24 11:03:58;;;;;;;2.20;1.60;;;;;;;25.79;100.00;101904.47;5005141;28;20461;-77
2022/08/24 11:06:29;;;;;;;2.33;2.03;;;;;;;25.86;100.00;101905.88;5006011;28;20419;-76
2022/08/24 11:09:09;;;;;;;2.40;2.03;;;;;;;25.47;100.00;101847.88;5006166;28;20432;-76
2022/08/24 11:11:45;;;;;;;2.20;1.80;;;;;;;25.90;100.00;101892.41;5004404;28;20421;-76
2022/08/24 11:14:11;;;;;;;4.97;2.87;;;;;;;26.06;100.00;101887.69;5004616;28;20942;-77
2022/08/24 11:16:39;;;;;;;3.40;1.83;;;;;;;25.84;100.00;101890.78;5005281;28;21025;-76
2022/08/24 11:19:30;;;;;;;2.00;1.77;;;;;;;25.88;100.00;101889.09;5005894;28;20190;-77
2022/08/24 11:22:00;;;;;;;1.50;1.40;;;;;;;25.23;100.00;101765.25;5000429;28;20448;-76
2022/08/24 11:24:40;;;;;;;2.30;1.50;;;;;;;25.73;100.00;101856.94;5005532;28;20440;-77
2022/08/24 11:27:18;;;;;;;1.63;1.30;;;;;;;25.85;100.00;101851.19;5002855;28;20460;-77
2022/08/24 11:29:53;;;;;;;1.90;1.70;;;;;;;26.20;100.00;101890.69;5003862;28;20429;-76
2022/08/24 11:32:27;;;;;;;2.73;2.13;;;;;;;25.95;100.00;101897.06;5002237;28;20515;-77
2022/08/24 11:34:52;;;;;;;2.13;1.40;;;;;;;25.60;100.00;101832.75;5007119;28;21192;-77
2022/08/24 11:37:23;;;;;;;1.30;1.20;;;;;;;26.18;100.00;101898.41;4985487;28;20545;-78
2022/08/24 11:39:48;;;;;;;2.60;2.33;;;;;;;26.65;100.00;101897.19;5002713;28;20189;-77
2022/08/24 11:42:42;;;;;;;4.80;2.80;;;;;;;26.71;100.00;101883.13;5001900;28;20443;-77
2022/08/24 11:45:25;;;;;;;2.13;1.90;;;;;;;26.22;100.00;101877.50;5003567;28;20197;-77
2022/08/24 11:48:00;;;;;;;2.40;2.20;;;;;;;26.16;100.00;101851.94;5007163;28;20443;-77
2022/08/24 11:50:41;;;;;;;1.10;1.00;;;;;;;26.48;100.00;101914.81;5006143;28;20483;-78